sensor_id;sensor_type;location;lat;lon;timestamp;pressure;altitude;pressure_sealevel;temperature;humidity
37450;BME280;23309;52.582;13.406;2022-12-18T07:01:37;103016.22;;;3.10;42.89
37450;BME280;23309;52.582;13.406;2022-12-18T07:04:03;103006.84;;;2.95;42.97
37450;BME280;23309;52.582;13.406;2022-12-18T07:06:29;102999.53;;;3.08;43.16
37450;BME280;23309;52.582;13.406;2022-12-18T07:08:55;102987.19;;;3.10;43.14
37450;BME280;23309;52.582;13.406;2022-12-18T07:11:22;102986.22;;;3.14;43.03
37450;BME280;23309;52.582;13.406;2022-12-18T07:13:48;102996.81;;;3.12;42.97
37450;BME280;23309;52.582;13.406;2022-12-18T07:16:16;102993.22;;;3.15;42.77
37450;BME280;23309;52.582;13.406;2022-12-18T07:18:45;102995.28;;;3.01;43.10
37450;BME280;23309;52.582;13.406;2022-12-18T07:21:15;103000.91;;;2.86;43.19
37450;BME280;23309;52.582;13.406;2022-12-18T07:23:42;103008.00;;;2.82;43.30
37450;BME280;23309;52.582;13.406;2022-12-18T07:26:10;103009.81;;;2.80;43.41
37450;BME280;23309;52.582;13.406;2022-12-18T07:28:38;103008.97;;;2.78;43.53
37450;BME280;23309;52.582;13.406;2022-12-18T07:31:07;103006.41;;;2.75;43.50
37450;BME280;23309;52.582;13.406;2022-12-18T07:33:34;103001.19;;;2.71;43.64
37450;BME280;23309;52.582;13.406;2022-12-18T07:36:06;103011.09;;;2.61;43.95
37450;BME280;23309;52.582;13.406;2022-12-18T07:38:33;103008.41;;;2.63;43.82
37450;BME280;23309;52.582;13.406;2022-12-18T07:41:00;103016.31;;;2.63;43.78
37450;BME280;23309;52.582;13.406;2022-12-18T07:43:27;103007.44;;;2.67;43.86
37450;BME280;23309;52.582;13.406;2022-12-18T07:45:53;103016.22;;;2.67;44.00
37450;BME280;23309;52.582;13.406;2022-12-18T07:48:19;103009.94;;;2.74;43.91
37450;BME280;23309;52.582;13.406;2022-12-18T07:50:45;103013.31;;;2.81;43.79
37450;BME280;23309;52.582;13.406;2022-12-18T07:53:14;103017.16;;;2.66;43.79
37450;BME280;23309;52.582;13.406;2022-12-18T07:55:40;103004.72;;;2.71;43.53
37450;BME280;23309;52.582;13.406;2022-12-18T07:58:06;102995.84;;;2.75;43.97
37450;BME280;23309;52.582;13.406;2022-12-18T08:00:33;103008.03;;;2.81;43.85
37450;BME280;23309;52.582;13.406;2022-12-18T08:02:59;103007.19;;;2.79;43.74
37450;BME280;23309;52.582;13.406;2022-12-18T08:05:25;103022.16;;;2.78;43.61
37450;BME280;23309;52.582;13.406;2022-12-18T08:07:52;103022.22;;;2.77;43.57
37450;BME280;23309;52.582;13.406;2022-12-18T08:10:21;103022.09;;;2.83;43.66
37450;BME280;23309;52.582;13.406;2022-12-18T08:12:50;103022.81;;;2.89;43.75
37450;BME280;23309;52.582;13.406;2022-12-18T08:15:16;103017.38;;;2.97;43.39
37450;BME280;23309;52.582;13.406;2022-12-18T08:17:42;103017.38;;;2.97;43.11
37450;BME280;23309;52.582;13.406;2022-12-18T08:20:10;103020.22;;;2.88;43.20
37450;BME280;23309;52.582;13.406;2022-12-18T08:22:36;103021.16;;;2.85;43.40
37450;BME280;23309;52.582;13.406;2022-12-18T08:25:03;103027.50;;;2.77;43.59
37450;BME280;23309;52.582;13.406;2022-12-18T08:27:32;103033.69;;;2.74;43.71
37450;BME280;23309;52.582;13.406;2022-12-18T08:29:58;103034.50;;;2.78;43.75
37450;BME280;23309;52.582;13.406;2022-12-18T08:32:24;103028.13;;;2.88;43.66
37450;BME280;23309;52.582;13.406;2022-12-18T08:34:51;103026.41;;;2.87;43.50
37450;BME280;23309;52.582;13.406;2022-12-18T08:37:17;103034.94;;;2.99;43.56
37450;BME280;23309;52.582;13.406;2022-12-18T08:39:43;103038.16;;;3.12;43.35
37450;BME280;23309;52.582;13.406;2022-12-18T08:42:10;103048.44;;;3.27;43.17
37450;BME280;23309;52.582;13.406;2022-12-18T08:44:38;103049.44;;;3.20;42.93
37450;BME280;23309;52.582;13.406;2022-12-18T08:47:05;103044.16;;;3.20;42.78
37450;BME280;23309;52.582;13.406;2022-12-18T08:49:31;103038.88;;;3.20;42.93
37450;BME280;23309;52.582;13.406;2022-12-18T08:51:58;103044.22;;;3.17;42.92
37450;BME280;23309;52.582;13.406;2022-12-18T08:54:24;103053.97;;;3.15;43.28
37450;BME280;23309;52.582;13.406;2022-12-18T08:56:51;103064.38;;;3.22;43.24
37450;BME280;23309;52.582;13.406;2022-12-18T08:59:17;103043.50;;;3.10;43.09
37450;BME280;23309;52.582;13.406;2022-12-18T09:01:47;103058.28;;;3.19;43.06
37450;BME280;23309;52.582;13.406;2022-12-18T09:04:13;103066.97;;;3.24;43.00
37450;BME280;23309;52.582;13.406;2022-12-18T09:06:40;103066.22;;;3.19;42.97
37450;BME280;23309;52.582;13.406;2022-12-18T09:09:06;103066.97;;;3.24;42.84
37450;BME280;23309;52.582;13.406;2022-12-18T09:11:33;103064.97;;;3.35;42.85
37450;BME280;23309;52.582;13.406;2022-12-18T09:14:01;103072.75;;;3.42;42.90
37450;BME280;23309;52.582;13.406;2022-12-18T09:16:28;103070.78;;;3.50;42.59
37450;BME280;23309;52.582;13.406;2022-12-18T09:18:58;103077.81;;;3.51;42.82
37450;BME280;23309;52.582;13.406;2022-12-18T09:21:26;103074.06;;;3.61;42.73
37450;BME280;23309;52.582;13.406;2022-12-18T09:23:54;103067.69;;;3.70;42.42
37450;BME280;23309;52.582;13.406;2022-12-18T09:26:21;103063.28;;;3.70;42.40
37450;BME280;23309;52.582;13.406;2022-12-18T09:28:47;103069.19;;;3.80;42.24
37450;BME280;23309;52.582;13.406;2022-12-18T09:31:17;103072.03;;;3.72;42.27
37450;BME280;23309;52.582;13.406;2022-12-18T09:33:44;103073.88;;;3.69;42.24
37450;BME280;23309;52.582;13.406;2022-12-18T09:36:15;103072.94;;;3.71;42.14
37450;BME280;23309;52.582;13.406;2022-12-18T09:38:42;103076.47;;;3.72;42.36
37450;BME280;23309;52.582;13.406;2022-12-18T09:41:30;103064.72;;;3.85;42.22
37450;BME280;23309;52.582;13.406;2022-12-18T09:44:03;103060.28;;;3.84;42.19
37450;BME280;23309;52.582;13.406;2022-12-18T09:46:34;103042.75;;;3.80;42.10
37450;BME280;23309;52.582;13.406;2022-12-18T09:49:06;103054.69;;;3.97;42.27
37450;BME280;23309;52.582;13.406;2022-12-18T09:51:43;103050.00;;;4.08;42.14
37450;BME280;23309;52.582;13.406;2022-12-18T09:54:15;103032.63;;;3.98;42.22
37450;BME280;23309;52.582;13.406;2022-12-18T09:56:43;103034.78;;;4.18;42.12
37450;BME280;23309;52.582;13.406;2022-12-18T09:59:22;103034.31;;;4.34;41.82
37450;BME280;23309;52.582;13.406;2022-12-18T10:01:49;103028.19;;;4.34;41.89
37450;BME280;23309;52.582;13.406;2022-12-18T10:04:17;103018.38;;;4.37;41.77
37450;BME280;23309;52.582;13.406;2022-12-18T10:06:52;103004.44;;;4.31;41.63
37450;BME280;23309;52.582;13.406;2022-12-18T10:09:28;103005.41;;;4.28;41.60
37450;BME280;23309;52.582;13.406;2022-12-18T10:12:05;103010.91;;;4.21;41.96
37450;BME280;23309;52.582;13.406;2022-12-18T10:14:41;103007.38;;;4.20;42.08
37450;BME280;23309;52.582;13.406;2022-12-18T10:17:23;103021.41;;;4.22;42.16
37450;BME280;23309;52.582;13.406;2022-12-18T10:19:56;103010.03;;;4.19;42.43
37450;BME280;23309;52.582;13.406;2022-12-18T10:22:47;103013.09;;;4.37;42.31
37450;BME280;23309;52.582;13.406;2022-12-18T10:25:22;103016.34;;;4.47;42.14
37450;BME280;23309;52.582;13.406;2022-12-18T10:27:54;103012.69;;;4.51;42.30
37450;BME280;23309;52.582;13.406;2022-12-18T10:30:24;103010.00;;;4.52;42.18
37450;BME280;23309;52.582;13.406;2022-12-18T10:32:51;103012.28;;;4.66;42.28
37450;BME280;23309;52.582;13.406;2022-12-18T10:35:20;103004.13;;;4.73;42.14
37450;BME280;23309;52.582;13.406;2022-12-18T10:38:06;103008.13;;;4.88;42.12
37450;BME280;23309;52.582;13.406;2022-12-18T10:40:36;102996.16;;;4.75;42.07
37450;BME280;23309;52.582;13.406;2022-12-18T10:43:15;102992.84;;;4.67;42.42
37450;BME280;23309;52.582;13.406;2022-12-18T10:46:04;102994.75;;;4.92;42.17
37450;BME280;23309;52.582;13.406;2022-12-18T10:48:32;102992.41;;;4.82;42.32
37450;BME280;23309;52.582;13.406;2022-12-18T10:51:00;102992.44;;;4.80;43.43
37450;BME280;23309;52.582;13.406;2022-12-18T10:53:31;102975.66;;;4.81;43.18
37450;BME280;23309;52.582;13.406;2022-12-18T10:55:59;102968.78;;;4.74;42.95
37450;BME280;23309;52.582;13.406;2022-12-18T10:58:28;102970.66;;;4.71;42.90
37450;BME280;23309;52.582;13.406;2022-12-18T11:01:11;102960.59;;;4.83;42.99
37450;BME280;23309;52.582;13.406;2022-12-18T11:03:39;102960.81;;;4.76;43.03
37450;BME280;23309;52.582;13.406;2022-12-18T11:06:09;102965.09;;;4.80;43.16
37450;BME280;23309;52.582;13.406;2022-12-18T11:08:39;102973.16;;;4.75;43.15
37450;BME280;23309;52.582;13.406;2022-12-18T11:11:23;102957.81;;;4.88;43.08
37450;BME280;23309;52.582;13.406;2022-12-18T11:14:01;102963.72;;;4.96;43.12
37450;BME280;23309;52.582;13.406;2022-12-18T11:16:30;102962.97;;;4.92;43.21
37450;BME280;23309;52.582;13.406;2022-12-18T11:19:20;102945.03;;;5.02;42.82
37450;BME280;23309;52.582;13.406;2022-12-18T11:21:47;102948.22;;;4.84;43.02
37450;BME280;23309;52.582;13.406;2022-12-18T11:24:29;102959.34;;;4.95;42.96
37450;BME280;23309;52.582;13.406;2022-12-18T11:26:57;102968.69;;;4.79;43.42
37450;BME280;23309;52.582;13.406;2022-12-18T11:29:32;102969.44;;;4.82;43.39
37450;BME280;23309;52.582;13.406;2022-12-18T11:32:26;102960.34;;;4.91;43.04
37450;BME280;23309;52.582;13.406;2022-12-18T11:35:02;102956.47;;;4.73;43.50
37450;BME280;23309;52.582;13.406;2022-12-18T11:37:29;102962.06;;;4.63;43.63
37450;BME280;23309;52.582;13.406;2022-12-18T11:40:06;102961.00;;;4.70;43.67
37450;BME280;23309;52.582;13.406;2022-12-18T11:42:39;102953.50;;;4.53;43.86
37450;BME280;23309;52.582;13.406;2022-12-18T11:45:29;102965.69;;;4.60;44.08
37450;BME280;23309;52.582;13.406;2022-12-18T11:48:01;102979.88;;;4.58;44.21
37450;BME280;23309;52.582;13.406;2022-12-18T11:50:33;102979.56;;;4.68;44.02
37450;BME280;23309;52.582;13.406;2022-12-18T11:53:04;102989.72;;;4.83;43.83
37450;BME280;23309;52.582;13.406;2022-12-18T11:55:48;102983.66;;;4.80;43.67
37450;BME280;23309;52.582;13.406;2022-12-18T11:58:27;102995.66;;;4.91;43.61
37450;BME280;23309;52.582;13.406;2022-12-18T12:01:03;102993.25;;;4.84;43.49
37450;BME280;23309;52.582;13.406;2022-12-18T12:03:58;103001.88;;;4.90;43.79
37450;BME280;23309;52.582;13.406;2022-12-18T12:06:35;102990.41;;;4.90;43.71
37450;BME280;23309;52.582;13.406;2022-12-18T12:09:12;102993.59;;;5.01;43.40
37450;BME280;23309;52.582;13.406;2022-12-18T12:11:58;103001.50;;;5.02;43.28
37450;BME280;23309;52.582;13.406;2022-12-18T12:14:43;103009.38;;;5.05;43.21
37450;BME280;23309;52.582;13.406;2022-12-18T12:17:20;102998.97;;;4.99;43.28
37450;BME280;23309;52.582;13.406;2022-12-18T12:19:57;102997.00;;;5.06;43.31
37450;BME280;23309;52.582;13.406;2022-12-18T12:22:35;103000.53;;;5.05;43.13
37450;BME280;23309;52.582;13.406;2022-12-18T12:25:26;103002.38;;;5.03;42.87
37450;BME280;23309;52.582;13.406;2022-12-18T12:28:09;103012.91;;;5.06;42.94
37450;BME280;23309;52.582;13.406;2022-12-18T12:30:49;102980.69;;;4.90;42.92
37450;BME280;23309;52.582;13.406;2022-12-18T12:33:35;103021.41;;;5.15;42.87
37450;BME280;23309;52.582;13.406;2022-12-18T12:36:12;103011.09;;;5.06;42.80
37450;BME280;23309;52.582;13.406;2022-12-18T12:38:45;103019.75;;;5.11;42.96
37450;BME280;23309;52.582;13.406;2022-12-18T12:41:16;103026.22;;;5.03;42.82
37450;BME280;23309;52.582;13.406;2022-12-18T12:43:47;103021.72;;;5.05;42.98
37450;BME280;23309;52.582;13.406;2022-12-18T12:46:17;103011.78;;;5.13;42.66
37450;BME280;23309;52.582;13.406;2022-12-18T12:48:47;103009.22;;;5.10;42.73
37450;BME280;23309;52.582;13.406;2022-12-18T12:51:19;103010.97;;;5.11;42.95
37450;BME280;23309;52.582;13.406;2022-12-18T12:53:47;102998.34;;;5.19;42.95
37450;BME280;23309;52.582;13.406;2022-12-18T12:56:16;102990.91;;;5.31;42.84
37450;BME280;23309;52.582;13.406;2022-12-18T12:58:58;102987.00;;;5.43;42.39
37450;BME280;23309;52.582;13.406;2022-12-18T13:01:33;102960.94;;;5.28;42.27
37450;BME280;23309;52.582;13.406;2022-12-18T13:04:12;102938.28;;;5.19;42.54
37450;BME280;23309;52.582;13.406;2022-12-18T13:06:46;102964.84;;;5.16;42.43
37450;BME280;23309;52.582;13.406;2022-12-18T13:09:13;102951.03;;;5.07;42.50
37450;BME280;23309;52.582;13.406;2022-12-18T13:11:41;102960.28;;;4.94;42.71
37450;BME280;23309;52.582;13.406;2022-12-18T13:14:26;102955.06;;;4.91;42.87
37450;BME280;23309;52.582;13.406;2022-12-18T13:17:26;102955.50;;;4.76;43.12
37450;BME280;23309;52.582;13.406;2022-12-18T13:20:07;102969.69;;;4.75;43.49
37450;BME280;23309;52.582;13.406;2022-12-18T13:22:36;102967.22;;;4.67;43.45
37450;BME280;23309;52.582;13.406;2022-12-18T13:28:11;102962.69;;;5.01;42.96
37450;BME280;23309;52.582;13.406;2022-12-18T13:30:52;102970.50;;;5.06;43.11
37450;BME280;23309;52.582;13.406;2022-12-18T13:33:43;102959.50;;;5.18;42.91
37450;BME280;23309;52.582;13.406;2022-12-18T13:36:29;102969.34;;;5.14;42.75
37450;BME280;23309;52.582;13.406;2022-12-18T13:39:31;102966.47;;;5.22;42.61
37450;BME280;23309;52.582;13.406;2022-12-18T13:42:38;102962.59;;;5.04;42.72
37450;BME280;23309;52.582;13.406;2022-12-18T13:45:47;102948.28;;;5.10;42.91
37450;BME280;23309;52.582;13.406;2022-12-18T13:48:19;102933.69;;;4.97;43.11
37450;BME280;23309;52.582;13.406;2022-12-18T13:50:53;102931.78;;;5.02;43.03
37450;BME280;23309;52.582;13.406;2022-12-18T13:53:24;102931.69;;;5.03;42.81
37450;BME280;23309;52.582;13.406;2022-12-18T13:55:51;102936.19;;;5.01;42.89
37450;BME280;23309;52.582;13.406;2022-12-18T13:58:18;102937.88;;;5.04;43.00
37450;BME280;23309;52.582;13.406;2022-12-18T14:00:47;102944.81;;;5.08;42.85
37450;BME280;23309;52.582;13.406;2022-12-18T14:03:20;102933.19;;;5.13;43.07
37450;BME280;23309;52.582;13.406;2022-12-18T14:06:00;102900.41;;;5.16;42.56
37450;BME280;23309;52.582;13.406;2022-12-18T14:08:34;102914.75;;;5.09;42.91
37450;BME280;23309;52.582;13.406;2022-12-18T14:11:02;102921.47;;;4.93;43.03
37450;BME280;23309;52.582;13.406;2022-12-18T14:13:32;102925.19;;;4.86;42.97
37450;BME280;23309;52.582;13.406;2022-12-18T14:16:03;102914.47;;;4.90;42.71
37450;BME280;23309;52.582;13.406;2022-12-18T14:18:38;102927.88;;;4.84;43.00
37450;BME280;23309;52.582;13.406;2022-12-18T14:21:20;102932.81;;;4.67;43.36
37450;BME280;23309;52.582;13.406;2022-12-18T14:23:47;102921.56;;;4.61;43.45
37450;BME280;23309;52.582;13.406;2022-12-18T14:26:23;102909.16;;;4.61;43.61
37450;BME280;23309;52.582;13.406;2022-12-18T14:28:50;102905.03;;;4.53;43.86
37450;BME280;23309;52.582;13.406;2022-12-18T14:31:24;102903.16;;;4.56;44.11
37450;BME280;23309;52.582;13.406;2022-12-18T14:33:52;102897.25;;;4.47;44.07
37450;BME280;23309;52.582;13.406;2022-12-18T14:36:20;102899.69;;;4.54;44.23
37450;BME280;23309;52.582;13.406;2022-12-18T14:38:50;102891.88;;;4.50;43.96
37450;BME280;23309;52.582;13.406;2022-12-18T14:41:18;102878.72;;;4.47;44.25
37450;BME280;23309;52.582;13.406;2022-12-18T14:43:46;102873.72;;;4.67;43.69
37450;BME280;23309;52.582;13.406;2022-12-18T14:46:33;102866.16;;;4.53;44.03
37450;BME280;23309;52.582;13.406;2022-12-18T14:49:02;102875.59;;;4.33;44.36
37450;BME280;23309;52.582;13.406;2022-12-18T14:51:30;102874.97;;;4.25;44.47
37450;BME280;23309;52.582;13.406;2022-12-18T14:53:59;102863.22;;;4.35;44.37
37450;BME280;23309;52.582;13.406;2022-12-18T14:56:28;102846.19;;;4.43;44.52
37450;BME280;23309;52.582;13.406;2022-12-18T14:58:56;102839.84;;;4.49;44.18
37450;BME280;23309;52.582;13.406;2022-12-18T15:01:29;102861.50;;;4.61;44.11
37450;BME280;23309;52.582;13.406;2022-12-18T15:03:57;102878.97;;;4.68;44.11
37450;BME280;23309;52.582;13.406;2022-12-18T15:06:31;102891.13;;;4.74;44.14
37450;BME280;23309;52.582;13.406;2022-12-18T15:08:59;102895.47;;;4.76;43.89
37450;BME280;23309;52.582;13.406;2022-12-18T15:11:34;102898.19;;;4.75;43.96
37450;BME280;23309;52.582;13.406;2022-12-18T15:14:28;102882.38;;;4.72;43.84
37450;BME280;23309;52.582;13.406;2022-12-18T15:17:00;102909.38;;;4.83;43.80
37450;BME280;23309;52.582;13.406;2022-12-18T15:19:38;102903.31;;;4.79;43.75
37450;BME280;23309;52.582;13.406;2022-12-18T15:22:18;102898.25;;;4.72;43.57
37450;BME280;23309;52.582;13.406;2022-12-18T15:24:45;102899.16;;;4.72;43.62
37450;BME280;23309;52.582;13.406;2022-12-18T15:27:26;102883.34;;;4.69;43.64
37450;BME280;23309;52.582;13.406;2022-12-18T15:30:19;102895.06;;;4.90;43.65
37450;BME280;23309;52.582;13.406;2022-12-18T15:32:49;102889.25;;;4.79;43.60
37450;BME280;23309;52.582;13.406;2022-12-18T15:35:19;102901.59;;;4.78;43.64
37450;BME280;23309;52.582;13.406;2022-12-18T15:37:46;102898.78;;;4.83;43.69
37450;BME280;23309;52.582;13.406;2022-12-18T15:40:14;102899.75;;;4.80;43.63
37450;BME280;23309;52.582;13.406;2022-12-18T15:42:41;102901.44;;;4.83;43.55
37450;BME280;23309;52.582;13.406;2022-12-18T15:45:11;102904.78;;;4.89;43.63
37450;BME280;23309;52.582;13.406;2022-12-18T15:47:37;102913.63;;;4.88;43.47
37450;BME280;23309;52.582;13.406;2022-12-18T15:50:07;102908.63;;;4.79;43.32
37450;BME280;23309;52.582;13.406;2022-12-18T15:52:43;102917.53;;;4.77;43.32
37450;BME280;23309;52.582;13.406;2022-12-18T15:55:13;102902.00;;;4.65;43.44
37450;BME280;23309;52.582;13.406;2022-12-18T15:57:39;102900.22;;;4.65;43.23
37450;BME280;23309;52.582;13.406;2022-12-18T16:00:11;102890.69;;;4.60;43.38
37450;BME280;23309;52.582;13.406;2022-12-18T16:02:39;102896.19;;;4.52;43.37
37450;BME280;23309;52.582;13.406;2022-12-18T16:05:15;102887.63;;;4.73;43.24
37450;BME280;23309;52.582;13.406;2022-12-18T16:07:42;102887.94;;;4.63;43.07
37450;BME280;23309;52.582;13.406;2022-12-18T16:10:09;102895.00;;;4.62;42.91
37450;BME280;23309;52.582;13.406;2022-12-18T16:12:36;102893.56;;;4.52;42.90
37450;BME280;23309;52.582;13.406;2022-12-18T16:15:04;102894.66;;;4.45;43.22
37450;BME280;23309;52.582;13.406;2022-12-18T16:17:31;102889.28;;;4.47;43.38
37450;BME280;23309;52.582;13.406;2022-12-18T16:19:57;102884.13;;;4.44;43.31
37450;BME280;23309;52.582;13.406;2022-12-18T16:22:30;102876.53;;;4.32;43.39
37450;BME280;23309;52.582;13.406;2022-12-18T16:24:57;102868.53;;;4.33;43.46
37450;BME280;23309;52.582;13.406;2022-12-18T16:27:25;102866.56;;;4.41;43.46
37450;BME280;23309;52.582;13.406;2022-12-18T16:29:51;102870.22;;;4.36;43.49
37450;BME280;23309;52.582;13.406;2022-12-18T16:32:20;102873.19;;;4.25;43.66
37450;BME280;23309;52.582;13.406;2022-12-18T16:34:47;102890.72;;;4.29;43.76
37450;BME280;23309;52.582;13.406;2022-12-18T16:37:15;102877.13;;;4.41;43.77
37450;BME280;23309;52.582;13.406;2022-12-18T16:39:44;102866.44;;;4.44;43.40
37450;BME280;23309;52.582;13.406;2022-12-18T16:42:13;102869.28;;;4.38;43.50
37450;BME280;23309;52.582;13.406;2022-12-18T16:44:41;102872.06;;;4.34;43.54
37450;BME280;23309;52.582;13.406;2022-12-18T16:47:08;102870.31;;;4.33;43.48
37450;BME280;23309;52.582;13.406;2022-12-18T16:49:34;102865.06;;;4.31;43.60
37450;BME280;23309;52.582;13.406;2022-12-18T16:52:01;102857.91;;;4.35;43.37
37450;BME280;23309;52.582;13.406;2022-12-18T16:54:27;102870.31;;;4.33;43.85
37450;BME280;23309;52.582;13.406;2022-12-18T16:56:56;102879.91;;;4.37;43.69
37450;BME280;23309;52.582;13.406;2022-12-18T16:59:22;102866.34;;;4.47;43.55
37450;BME280;23309;52.582;13.406;2022-12-18T17:01:48;102854.72;;;4.53;43.49
37450;BME280;23309;52.582;13.406;2022-12-18T17:04:16;102871.53;;;4.52;43.25
37450;BME280;23309;52.582;13.406;2022-12-18T17:06:44;102878.16;;;4.36;43.52
37450;BME280;23309;52.582;13.406;2022-12-18T17:09:14;102874.72;;;4.34;43.61
37450;BME280;23309;52.582;13.406;2022-12-18T17:11:41;102867.50;;;4.39;43.46
37450;BME280;23309;52.582;13.406;2022-12-18T17:14:13;102878.09;;;4.39;43.44
37450;BME280;23309;52.582;13.406;2022-12-18T17:16:40;102867.69;;;4.31;43.42
37450;BME280;23309;52.582;13.406;2022-12-18T17:19:06;102870.88;;;4.44;43.34
37450;BME280;23309;52.582;13.406;2022-12-18T17:21:32;102877.13;;;4.41;43.11
37450;BME280;23309;52.582;13.406;2022-12-18T17:23:59;102867.50;;;4.39;43.27
37450;BME280;23309;52.582;13.406;2022-12-18T17:26:27;102870.88;;;4.44;43.15
37450;BME280;23309;52.582;13.406;2022-12-18T17:28:56;102858.00;;;4.32;43.28
37450;BME280;23309;52.582;13.406;2022-12-18T17:31:27;102861.31;;;4.40;43.21
37450;BME280;23309;52.582;13.406;2022-12-18T17:33:54;102865.84;;;4.35;43.16
37450;BME280;23309;52.582;13.406;2022-12-18T17:36:22;102865.91;;;4.33;43.34
37450;BME280;23309;52.582;13.406;2022-12-18T17:38:54;102867.03;;;4.25;43.45
37450;BME280;23309;52.582;13.406;2022-12-18T17:41:21;102875.75;;;4.28;43.29
37450;BME280;23309;52.582;13.406;2022-12-18T17:43:50;102876.56;;;4.30;43.32
37450;BME280;23309;52.582;13.406;2022-12-18T17:46:17;102860.72;;;4.29;43.22
37450;BME280;23309;52.582;13.406;2022-12-18T17:48:46;102876.75;;;4.24;43.27
37450;BME280;23309;52.582;13.406;2022-12-18T17:51:13;102870.72;;;4.19;43.44
37450;BME280;23309;52.582;13.406;2022-12-18T17:53:39;102859.09;;;4.25;43.25
37450;BME280;23309;52.582;13.406;2022-12-18T17:56:07;102860.91;;;4.23;43.37
37450;BME280;23309;52.582;13.406;2022-12-18T17:58:36;102847.59;;;4.26;43.29
37450;BME280;23309;52.582;13.406;2022-12-18T18:01:03;102838.13;;;4.17;43.17
37450;BME280;23309;52.582;13.406;2022-12-18T18:03:30;102834.97;;;4.05;43.59
37450;BME280;23309;52.582;13.406;2022-12-18T18:06:00;102837.63;;;4.05;43.64
37450;BME280;23309;52.582;13.406;2022-12-18T18:08:27;102839.59;;;3.97;43.76
37450;BME280;23309;52.582;13.406;2022-12-18T18:10:54;102828.81;;;4.04;43.48
37450;BME280;23309;52.582;13.406;2022-12-18T18:13:24;102821.78;;;4.03;43.64
37450;BME280;23309;52.582;13.406;2022-12-18T18:15:55;102817.88;;;3.87;43.67
37450;BME280;23309;52.582;13.406;2022-12-18T18:18:21;102825.69;;;3.90;43.73
37450;BME280;23309;52.582;13.406;2022-12-18T18:20:47;102810.81;;;3.86;43.73
37450;BME280;23309;52.582;13.406;2022-12-18T18:23:16;102816.66;;;3.99;43.81
37450;BME280;23309;52.582;13.406;2022-12-18T18:25:42;102801.47;;;4.05;43.48
37450;BME280;23309;52.582;13.406;2022-12-18T18:28:08;102808.72;;;3.99;43.48
37450;BME280;23309;52.582;13.406;2022-12-18T18:30:36;102813.97;;;4.00;43.56
37450;BME280;23309;52.582;13.406;2022-12-18T18:33:02;102813.28;;;3.94;43.46
37450;BME280;23309;52.582;13.406;2022-12-18T18:35:28;102807.19;;;3.90;43.55
37450;BME280;23309;52.582;13.406;2022-12-18T18:37:55;102795.75;;;3.90;43.68
37450;BME280;23309;52.582;13.406;2022-12-18T18:40:23;102783.34;;;3.92;43.67
37450;BME280;23309;52.582;13.406;2022-12-18T18:42:49;102772.00;;;3.88;43.32
37450;BME280;23309;52.582;13.406;2022-12-18T18:45:15;102780.69;;;3.92;43.37
37450;BME280;23309;52.582;13.406;2022-12-18T18:47:42;102786.84;;;3.94;43.29
37450;BME280;23309;52.582;13.406;2022-12-18T18:50:09;102778.09;;;3.90;43.33
37450;BME280;23309;52.582;13.406;2022-12-18T18:52:35;102761.66;;;3.81;43.25
37450;BME280;23309;52.582;13.406;2022-12-18T18:55:01;102767.91;;;3.78;43.21
37450;BME280;23309;52.582;13.406;2022-12-18T18:57:29;102746.81;;;3.75;43.46
37450;BME280;23309;52.582;13.406;2022-12-18T18:59:56;102759.25;;;3.72;43.44
37450;BME280;23309;52.582;13.406;2022-12-18T19:02:22;102742.66;;;3.67;43.33
37450;BME280;23309;52.582;13.406;2022-12-18T19:04:48;102753.03;;;3.74;43.38
37450;BME280;23309;52.582;13.406;2022-12-18T19:07:15;102741.56;;;3.74;43.44
37450;BME280;23309;52.582;13.406;2022-12-18T19:09:45;102744.03;;;3.80;43.39
37450;BME280;23309;52.582;13.406;2022-12-18T19:12:11;102756.47;;;3.76;43.46
37450;BME280;23309;52.582;13.406;2022-12-18T19:14:39;102750.34;;;3.76;43.31
37450;BME280;23309;52.582;13.406;2022-12-18T19:17:05;102745.06;;;3.76;43.31
37450;BME280;23309;52.582;13.406;2022-12-18T19:19:32;102729.19;;;3.76;43.23
37450;BME280;23309;52.582;13.406;2022-12-18T19:21:58;102720.56;;;3.69;43.21
37450;BME280;23309;52.582;13.406;2022-12-18T19:24:24;102724.97;;;3.69;43.37
37450;BME280;23309;52.582;13.406;2022-12-18T19:26:50;102717.06;;;3.69;43.17
37450;BME280;23309;52.582;13.406;2022-12-18T19:29:16;102710.03;;;3.68;43.21
37450;BME280;23309;52.582;13.406;2022-12-18T19:31:45;102707.41;;;3.68;43.30
37450;BME280;23309;52.582;13.406;2022-12-18T19:34:11;102722.16;;;3.75;43.18
37450;BME280;23309;52.582;13.406;2022-12-18T19:36:39;102718.38;;;3.83;43.18
37450;BME280;23309;52.582;13.406;2022-12-18T19:39:09;102719.16;;;3.87;42.87
37450;BME280;23309;52.582;13.406;2022-12-18T19:41:36;102724.50;;;3.85;42.86
37450;BME280;23309;52.582;13.406;2022-12-18T19:44:02;102717.56;;;3.81;42.73
37450;BME280;23309;52.582;13.406;2022-12-18T19:46:28;102731.59;;;3.83;42.87
37450;BME280;23309;52.582;13.406;2022-12-18T19:48:58;102706.13;;;3.81;42.79
37450;BME280;23309;52.582;13.406;2022-12-18T19:51:26;102723.50;;;3.89;42.65
37450;BME280;23309;52.582;13.406;2022-12-18T19:53:54;102731.94;;;3.71;42.68
37450;BME280;23309;52.582;13.406;2022-12-18T19:56:24;102720.09;;;3.55;42.99
37450;BME280;23309;52.582;13.406;2022-12-18T19:58:51;102709.34;;;3.61;42.92
